C1078 PASI-PAPG
Flight info
| Callsign | C1078 |
|---|---|
| Flight time | 0h 33m |
| Altitude | 6500 |
| Route | ZARUT |
| Aircraft | A109/L-SDFGRY/C |
Departure
| Time | 2026-05-05 01:56 |
|---|---|
| Airport | Sitka Rocky Gutierrez Airport (PASI) |
Arrival
| Time | 2026-05-05 02:29 |
|---|---|
| Airport | Petersburg James A Johnson Airport (PAPG) |
| Time | Latitude | Longitude | Altitude | Speed | Heading |
|---|---|---|---|---|---|
| 2026-05-05 01:49 | 57.05451 | -135.36981 | 17 ft | 0 kts | 223° |
| 2026-05-05 01:53 | 57.05450 | -135.36981 | 21 ft | 1 kts | 258° |
| 2026-05-05 01:54 | 57.05425 | -135.37140 | 47 ft | 26 kts | 229° |
| 2026-05-05 01:54 | 57.05196 | -135.37080 | 77 ft | 61 kts | 133° |
| 2026-05-05 01:54 | 57.04815 | -135.36366 | 171 ft | 90 kts | 139° |
| 2026-05-05 01:54 | 57.04300 | -135.35550 | 298 ft | 111 kts | 141° |
| 2026-05-05 01:55 | 57.03606 | -135.34560 | 206 ft | 136 kts | 142° |
| 2026-05-05 01:55 | 57.02846 | -135.33472 | 225 ft | 137 kts | 142° |
| 2026-05-05 01:55 | 57.02123 | -135.32423 | 383 ft | 128 kts | 143° |
| 2026-05-05 01:55 | 57.01435 | -135.31467 | 583 ft | 121 kts | 144° |
| 2026-05-05 01:56 | 57.01123 | -135.31053 | 668 ft | 119 kts | 144° |
| 2026-05-05 01:56 | 57.00740 | -135.30478 | 819 ft | 112 kts | 129° |
| 2026-05-05 01:56 | 57.00568 | -135.29330 | 1239 ft | 86 kts | 77° |
| 2026-05-05 01:56 | 57.00664 | -135.28247 | 1687 ft | 92 kts | 85° |
| 2026-05-05 01:57 | 57.00680 | -135.27020 | 2035 ft | 103 kts | 87° |
| 2026-05-05 01:57 | 57.00680 | -135.25635 | 2207 ft | 115 kts | 89° |
| 2026-05-05 01:57 | 57.00675 | -135.24114 | 2379 ft | 123 kts | 89° |
| 2026-05-05 01:57 | 57.00668 | -135.22510 | 2553 ft | 128 kts | 90° |
| 2026-05-05 01:58 | 57.00700 | -135.20862 | 2786 ft | 127 kts | 81° |
| 2026-05-05 01:58 | 57.00941 | -135.19208 | 2915 ft | 142 kts | 71° |
| 2026-05-05 01:58 | 57.01232 | -135.17519 | 3258 ft | 137 kts | 71° |
| 2026-05-05 01:58 | 57.01527 | -135.15817 | 3401 ft | 143 kts | 72° |
| 2026-05-05 01:59 | 57.01843 | -135.14058 | 3516 ft | 148 kts | 71° |
| 2026-05-05 01:59 | 57.02192 | -135.12253 | 3619 ft | 150 kts | 70° |
| 2026-05-05 01:59 | 57.02562 | -135.10474 | 3711 ft | 151 kts | 68° |
| 2026-05-05 01:59 | 57.02983 | -135.08708 | 3789 ft | 153 kts | 58° |
| 2026-05-05 02:00 | 57.03627 | -135.07112 | 3957 ft | 154 kts | 53° |
| 2026-05-05 02:00 | 57.04274 | -135.05637 | 4173 ft | 144 kts | 51° |
| 2026-05-05 02:00 | 57.04827 | -135.04146 | 4355 ft | 142 kts | 71° |
| 2026-05-05 02:00 | 57.04963 | -135.02335 | 4558 ft | 142 kts | 88° |
| 2026-05-05 02:01 | 57.06373 | -134.83981 | 6428 ft | 147 kts | 85° |
| 2026-05-05 02:01 | 57.06391 | -134.81848 | 6465 ft | 151 kts | 86° |
| 2026-05-05 02:01 | 57.06536 | -134.79947 | 6485 ft | 151 kts | 82° |
| 2026-05-05 02:01 | 57.06676 | -134.78040 | 6479 ft | 151 kts | 85° |
| 2026-05-05 02:02 | 57.07033 | -134.72879 | 6473 ft | 157 kts | 84° |
| 2026-05-05 02:02 | 57.09230 | -134.39847 | 6492 ft | 164 kts | 84° |
| 2026-05-05 02:02 | 57.09674 | -134.34102 | 6467 ft | 170 kts | 79° |
| 2026-05-05 02:02 | 57.09804 | -134.31961 | 6487 ft | 170 kts | 84° |
| 2026-05-05 02:03 | 57.09938 | -134.29791 | 6479 ft | 169 kts | 82° |
| 2026-05-05 02:03 | 57.10089 | -134.27608 | 6470 ft | 170 kts | 82° |
| 2026-05-05 02:03 | 57.10226 | -134.25482 | 6470 ft | 170 kts | 82° |
| 2026-05-05 02:03 | 57.10370 | -134.23292 | 6480 ft | 170 kts | 82° |
| 2026-05-05 02:04 | 57.10509 | -134.21152 | 6487 ft | 170 kts | 82° |
| 2026-05-05 02:04 | 57.10652 | -134.18986 | 6484 ft | 170 kts | 82° |
| 2026-05-05 02:04 | 57.10781 | -134.16838 | 6482 ft | 170 kts | 84° |
| 2026-05-05 02:04 | 57.10761 | -134.14636 | 6492 ft | 171 kts | 93° |
| 2026-05-05 02:05 | 57.10703 | -134.12485 | 6484 ft | 171 kts | 90° |
| 2026-05-05 02:05 | 57.10677 | -134.10286 | 6478 ft | 170 kts | 91° |
| 2026-05-05 02:05 | 57.10637 | -134.08121 | 6484 ft | 170 kts | 90° |
| 2026-05-05 02:05 | 57.10601 | -134.05954 | 6483 ft | 170 kts | 90° |
| 2026-05-05 02:06 | 57.10535 | -134.03760 | 6467 ft | 171 kts | 101° |
| 2026-05-05 02:06 | 57.09903 | -134.01923 | 6487 ft | 171 kts | 137° |
| 2026-05-05 02:06 | 57.08985 | -134.00568 | 6483 ft | 170 kts | 139° |
| 2026-05-05 02:06 | 57.08118 | -133.99087 | 6478 ft | 171 kts | 136° |
| 2026-05-05 02:07 | 57.07245 | -133.97603 | 6480 ft | 172 kts | 138° |
| 2026-05-05 02:07 | 57.06363 | -133.96126 | 6482 ft | 170 kts | 137° |
| 2026-05-05 02:07 | 57.05489 | -133.94669 | 6487 ft | 170 kts | 137° |
| 2026-05-05 02:07 | 57.04597 | -133.93198 | 6487 ft | 171 kts | 137° |
| 2026-05-05 02:08 | 57.03719 | -133.91754 | 6486 ft | 170 kts | 137° |
| 2026-05-05 02:08 | 57.02835 | -133.90303 | 6481 ft | 171 kts | 138° |
| 2026-05-05 02:08 | 57.01950 | -133.88840 | 6492 ft | 171 kts | 137° |
| 2026-05-05 02:08 | 57.01083 | -133.87332 | 6496 ft | 171 kts | 131° |
| 2026-05-05 02:09 | 57.00257 | -133.85767 | 6499 ft | 170 kts | 138° |
| 2026-05-05 02:09 | 56.99368 | -133.84345 | 6499 ft | 170 kts | 138° |
| 2026-05-05 02:09 | 56.98494 | -133.82871 | 6499 ft | 171 kts | 137° |
| 2026-05-05 02:09 | 56.97612 | -133.81393 | 6494 ft | 171 kts | 137° |
| 2026-05-05 02:10 | 56.96734 | -133.79929 | 6493 ft | 172 kts | 137° |
| 2026-05-05 02:10 | 56.95845 | -133.78441 | 6495 ft | 172 kts | 137° |
| 2026-05-05 02:10 | 56.94952 | -133.76950 | 6491 ft | 171 kts | 137° |
| 2026-05-05 02:10 | 56.94071 | -133.75481 | 6488 ft | 172 kts | 137° |
| 2026-05-05 02:11 | 56.93179 | -133.73994 | 6490 ft | 172 kts | 137° |
| 2026-05-05 02:11 | 56.92291 | -133.72514 | 6485 ft | 173 kts | 137° |
| 2026-05-05 02:11 | 56.91401 | -133.71033 | 6483 ft | 173 kts | 137° |
| 2026-05-05 02:11 | 56.90510 | -133.69550 | 6484 ft | 172 kts | 137° |
| 2026-05-05 02:12 | 56.89612 | -133.68077 | 6478 ft | 173 kts | 139° |
| 2026-05-05 02:12 | 56.82618 | -133.56531 | 6465 ft | 172 kts | 136° |
| 2026-05-05 02:12 | 56.81739 | -133.55061 | 6470 ft | 172 kts | 136° |
| 2026-05-05 02:13 | 56.80868 | -133.53621 | 6470 ft | 172 kts | 137° |
| 2026-05-05 02:13 | 56.79986 | -133.52167 | 6467 ft | 173 kts | 136° |
| 2026-05-05 02:13 | 56.79096 | -133.50697 | 6472 ft | 173 kts | 136° |
| 2026-05-05 02:13 | 56.78205 | -133.49226 | 6482 ft | 173 kts | 136° |
| 2026-05-05 02:14 | 56.77313 | -133.47759 | 6486 ft | 173 kts | 136° |
| 2026-05-05 02:14 | 56.76420 | -133.46287 | 6479 ft | 173 kts | 136° |
| 2026-05-05 02:14 | 56.75520 | -133.44807 | 6471 ft | 173 kts | 136° |
| 2026-05-05 02:14 | 56.74635 | -133.43353 | 6473 ft | 173 kts | 136° |
| 2026-05-05 02:15 | 56.73731 | -133.41867 | 6481 ft | 174 kts | 136° |
| 2026-05-05 02:15 | 56.72836 | -133.40399 | 6481 ft | 174 kts | 136° |
| 2026-05-05 02:15 | 56.71953 | -133.38915 | 6478 ft | 174 kts | 131° |
| 2026-05-05 02:15 | 56.71253 | -133.37138 | 6498 ft | 173 kts | 124° |
| 2026-05-05 02:16 | 56.70492 | -133.35420 | 6487 ft | 173 kts | 127° |
| 2026-05-05 02:16 | 56.69727 | -133.33716 | 6488 ft | 174 kts | 127° |
| 2026-05-05 02:16 | 56.68967 | -133.32013 | 6484 ft | 173 kts | 127° |
| 2026-05-05 02:16 | 56.68237 | -133.30382 | 6488 ft | 172 kts | 127° |
| 2026-05-05 02:17 | 56.67464 | -133.28667 | 6482 ft | 172 kts | 128° |
| 2026-05-05 02:17 | 56.66714 | -133.26981 | 6403 ft | 173 kts | 126° |
| 2026-05-05 02:17 | 56.65953 | -133.25247 | 6052 ft | 170 kts | 126° |
| 2026-05-05 02:17 | 56.65271 | -133.23666 | 5746 ft | 147 kts | 125° |
| 2026-05-05 02:18 | 56.64682 | -133.22313 | 5396 ft | 132 kts | 125° |
| 2026-05-05 02:18 | 56.64117 | -133.21045 | 5007 ft | 127 kts | 126° |
| 2026-05-05 02:18 | 56.63571 | -133.19821 | 4631 ft | 125 kts | 126° |
| 2026-05-05 02:18 | 56.63023 | -133.18610 | 4250 ft | 124 kts | 126° |
| 2026-05-05 02:19 | 56.62478 | -133.17413 | 3866 ft | 122 kts | 126° |
| 2026-05-05 02:19 | 56.61937 | -133.16226 | 3485 ft | 121 kts | 126° |
| 2026-05-05 02:19 | 56.61407 | -133.15059 | 3105 ft | 120 kts | 126° |
| 2026-05-05 02:19 | 56.60885 | -133.13905 | 2730 ft | 119 kts | 126° |
| 2026-05-05 02:20 | 56.60360 | -133.12746 | 2350 ft | 119 kts | 126° |
| 2026-05-05 02:20 | 56.59840 | -133.11603 | 2092 ft | 117 kts | 127° |
| 2026-05-05 02:20 | 56.59317 | -133.10467 | 2026 ft | 116 kts | 127° |
| 2026-05-05 02:20 | 56.58805 | -133.09340 | 1995 ft | 116 kts | 127° |
| 2026-05-05 02:21 | 56.58433 | -133.08063 | 1992 ft | 113 kts | 95° |
| 2026-05-05 02:21 | 56.58299 | -133.06680 | 1973 ft | 112 kts | 95° |
| 2026-05-05 02:21 | 56.58186 | -133.05266 | 1968 ft | 112 kts | 88° |
| 2026-05-05 02:21 | 56.58436 | -133.03978 | 1980 ft | 107 kts | 56° |
| 2026-05-05 02:22 | 56.58929 | -133.02924 | 1950 ft | 120 kts | 41° |
| 2026-05-05 02:22 | 56.59721 | -133.02061 | 1965 ft | 141 kts | 23° |
| 2026-05-05 02:22 | 56.60662 | -133.01445 | 1970 ft | 148 kts | 19° |
| 2026-05-05 02:22 | 56.61652 | -133.00787 | 1966 ft | 154 kts | 20° |
| 2026-05-05 02:23 | 56.62678 | -133.00098 | 1975 ft | 158 kts | 19° |
| 2026-05-05 02:23 | 56.63710 | -132.99406 | 1981 ft | 158 kts | 20° |
| 2026-05-05 02:23 | 56.64743 | -132.98714 | 1981 ft | 157 kts | 20° |
| 2026-05-05 02:23 | 56.65773 | -132.98024 | 1980 ft | 156 kts | 20° |
| 2026-05-05 02:24 | 56.66795 | -132.97339 | 1979 ft | 157 kts | 20° |
| 2026-05-05 02:24 | 56.67819 | -132.96655 | 1983 ft | 158 kts | 20° |
| 2026-05-05 02:24 | 56.68863 | -132.95955 | 1985 ft | 158 kts | 20° |
| 2026-05-05 02:24 | 56.69886 | -132.95268 | 1987 ft | 158 kts | 20° |
| 2026-05-05 02:25 | 56.70921 | -132.94579 | 1987 ft | 158 kts | 19° |
| 2026-05-05 02:25 | 56.72001 | -132.94301 | 1987 ft | 158 kts | 357° |
| 2026-05-05 02:25 | 56.73077 | -132.94798 | 1962 ft | 158 kts | 339° |
| 2026-05-05 02:25 | 56.73978 | -132.95688 | 1926 ft | 136 kts | 326° |
| 2026-05-05 02:26 | 56.74663 | -132.96699 | 1838 ft | 118 kts | 321° |
| 2026-05-05 02:26 | 56.75228 | -132.97693 | 1739 ft | 110 kts | 317° |
| 2026-05-05 02:26 | 56.75758 | -132.98683 | 1599 ft | 109 kts | 317° |
| 2026-05-05 02:26 | 56.76311 | -132.99631 | 1433 ft | 109 kts | 323° |
| 2026-05-05 02:27 | 56.76934 | -133.00383 | 1193 ft | 105 kts | 339° |
| 2026-05-05 02:27 | 56.77606 | -133.00696 | 947 ft | 98 kts | 1° |
| 2026-05-05 02:27 | 56.78274 | -133.00511 | 689 ft | 97 kts | 23° |
| 2026-05-05 02:27 | 56.78844 | -132.99893 | 497 ft | 96 kts | 46° |
| 2026-05-05 02:28 | 56.79256 | -132.98950 | 422 ft | 96 kts | 60° |
| 2026-05-05 02:28 | 56.79509 | -132.97852 | 402 ft | 91 kts | 71° |
| 2026-05-05 02:28 | 56.79725 | -132.96756 | 374 ft | 92 kts | 68° |
| 2026-05-05 02:28 | 56.79961 | -132.95650 | 266 ft | 94 kts | 68° |
| 2026-05-05 02:29 | 56.80151 | -132.94614 | 197 ft | 73 kts | 71° |
| 2026-05-05 02:29 | 56.80279 | -132.93985 | 140 ft | 31 kts | 79° |
| 2026-05-05 02:29 | 56.80314 | -132.93741 | 115 ft | 11 kts | 73° |
| 2026-05-05 02:29 | 56.80335 | -132.93605 | 110 ft | 16 kts | 73° |
| 2026-05-05 02:30 | 56.80378 | -132.93411 | 95 ft | 9 kts | 50° |
| 2026-05-05 02:30 | 56.80423 | -132.93376 | 92 ft | 8 kts | 4° |
| 2026-05-05 02:30 | 56.80461 | -132.93384 | 95 ft | 1 kts | 349° |
| 2026-05-05 02:30 | 56.80490 | -132.93398 | 97 ft | 4 kts | 337° |
| 2026-05-05 02:31 | 56.80527 | -132.93443 | 91 ft | 6 kts | 281° |
| 2026-05-05 02:31 | 56.80526 | -132.93539 | 88 ft | 4 kts | 319° |
| 2026-05-05 02:31 | 56.80537 | -132.93526 | 89 ft | 1 kts | 39° |
| 2026-05-05 02:31 | 56.80555 | -132.93507 | 85 ft | 1 kts | 343° |
| 2026-05-05 02:32 | 56.80559 | -132.93507 | 84 ft | 1 kts | 347° |
| 2026-05-05 02:32 | 56.80557 | -132.93512 | 79 ft | 0 kts | 345° |